Rising Sun, Montana
Current Conditions -  °F | °C
As of 11:55 PM on Saturday 25 Oct 2014 (Local Time) from KGPI Reporting Station
Overcast Overcast  
Wind Chill: 35°   Ceiling: 8500
Heat Index: 40°   Visibility: 10mi
Dew Point: 39°   Wind: 7mph
Humidity: 97%   Direction: 280°W
Pressure: 29.6"   Gusts: NA
Location:  48.7064°N, 113.591°W
Report Text: KGPI 260555Z 28006KT 10SM OVC085 04/04 A2960 RMK AO2 SLP031 60000 T00440039 10111 20017 53002
Loading
Personal Weather Stations






























Interactive Weather Map
Tropical Storm Tracking
New forecast layout! Learn more

10-Day Weather Forecast

Advertisements
Track Severe Weather on mobile